Time;durP1;ratioP1;P1;durP2;ratioP2;P2;SDS_P1;SDS_P2;PMS_P1;PMS_P2;Temp;Humidity;BMP_temperature;BMP_pressure;BME280_temperature;BME280_humidity;BME280_pressure;Samples;Min_cycle;Max_cycle;Signal;HPM_P1;HPM_P2
2023/04/25 00:01:52;;;;;;;1.23;1.07;;;;;;;8.15;89.95;95653.84;5055597;28;20223;-71
2023/04/25 00:04:19;;;;;;;0.83;0.50;;;;;;;8.16;89.90;95648.41;5054628;28;20224;-69
2023/04/25 00:06:45;;;;;;;0.70;0.70;;;;;;;8.15;87.74;95659.09;5055112;28;20220;-72
2023/04/25 00:09:12;;;;;;;0.90;0.90;;;;;;;8.19;88.47;95644.63;5054613;28;20211;-71
2023/04/25 00:11:38;;;;;;;0.50;0.50;;;;;;;8.22;86.71;95649.50;5054836;28;20624;-70
2023/04/25 00:14:06;;;;;;;0.83;0.80;;;;;;;8.28;86.46;95643.56;5055244;28;20251;-69
2023/04/25 00:16:34;;;;;;;0.40;0.40;;;;;;;8.29;87.55;95639.94;5055694;28;20295;-70
2023/04/25 00:19:03;;;;;;;3.20;0.90;;;;;;;8.36;87.92;95646.13;5055340;28;20205;-71
2023/04/25 00:21:31;;;;;;;0.67;0.67;;;;;;;8.35;88.26;95644.47;5054214;28;20197;-69
2023/04/25 00:23:57;;;;;;;0.30;0.30;;;;;;;8.32;88.54;95634.34;5054026;28;20334;-71
2023/04/25 00:26:24;;;;;;;0.67;0.67;;;;;;;8.31;88.86;95637.94;5056743;28;20215;-71
2023/04/25 00:28:51;;;;;;;0.53;0.50;;;;;;;8.33;89.15;95625.47;5054950;28;20204;-70
2023/04/25 00:31:17;;;;;;;0.47;0.47;;;;;;;8.36;89.22;95636.41;5056843;28;20204;-71
2023/04/25 00:33:44;;;;;;;0.40;0.40;;;;;;;8.32;89.02;95631.72;5059255;28;20243;-71
2023/04/25 00:36:12;;;;;;;1.03;0.73;;;;;;;8.33;89.01;95625.47;5058689;28;20207;-69
2023/04/25 00:38:38;;;;;;;0.73;0.73;;;;;;;8.33;89.23;95621.03;5057750;28;20513;-70
2023/04/25 00:41:06;;;;;;;1.07;0.77;;;;;;;8.47;90.96;95627.31;5058989;28;20200;-68
2023/04/25 00:43:33;;;;;;;0.40;0.40;;;;;;;8.43;90.62;95615.53;5058903;28;20236;-71
2023/04/25 00:46:01;;;;;;;0.40;0.40;;;;;;;8.41;90.86;95612.28;5058259;28;20228;-70
2023/04/25 00:48:27;;;;;;;0.70;0.60;;;;;;;8.40;91.58;95600.97;5058655;28;20201;-70
2023/04/25 00:50:55;;;;;;;0.50;0.50;;;;;;;8.31;88.37;95586.28;5058676;28;20609;-72
2023/04/25 00:53:25;;;;;;;0.30;0.30;;;;;;;8.11;91.71;95597.44;5057830;28;20229;-71
2023/04/25 00:55:52;;;;;;;0.50;0.50;;;;;;;8.16;91.08;95619.56;5058774;28;20304;-70
2023/04/25 00:58:19;;;;;;;0.40;0.40;;;;;;;8.23;89.86;95611.78;5057563;28;20203;-71
2023/04/25 01:00:46;;;;;;;0.30;0.30;;;;;;;8.09;90.85;95615.16;5058184;28;20204;-71
2023/04/25 01:03:13;;;;;;;0.60;0.60;;;;;;;8.04;91.53;95610.44;5056974;28;20205;-71
2023/04/25 01:05:41;;;;;;;1.23;0.70;;;;;;;8.17;89.47;95610.69;5058664;28;20220;-71
2023/04/25 01:08:08;;;;;;;0.40;0.40;;;;;;;8.16;90.70;95609.06;5056955;28;20421;-71
2023/04/25 01:10:36;;;;;;;0.40;0.40;;;;;;;8.14;91.59;95599.72;5058077;28;20208;-71
2023/04/25 01:13:03;;;;;;;1.23;1.10;;;;;;;8.17;91.58;95605.44;5057880;28;20216;-71
2023/04/25 01:15:29;;;;;;;0.80;0.80;;;;;;;8.15;91.72;95601.38;5057932;28;20196;-70
2023/04/25 01:17:57;;;;;;;1.60;0.87;;;;;;;7.91;91.50;95597.09;5057389;28;20211;-71
2023/04/25 01:20:26;;;;;;;0.70;0.70;;;;;;;7.85;92.58;95607.47;5057983;28;20200;-70
2023/04/25 01:22:55;;;;;;;0.83;0.70;;;;;;;8.09;92.93;95607.28;5057296;28;20208;-70
2023/04/25 01:25:23;;;;;;;0.40;0.40;;;;;;;8.04;92.88;95599.97;5057801;28;20502;-72
2023/04/25 01:27:49;;;;;;;0.50;0.50;;;;;;;7.95;93.29;95594.94;5058048;28;20214;-69
2023/04/25 01:30:16;;;;;;;0.40;0.40;;;;;;;7.95;93.37;95592.31;5057431;28;20205;-71
2023/04/25 01:32:43;;;;;;;0.40;0.40;;;;;;;7.87;94.46;95597.63;5056467;28;20220;-70
2023/04/25 01:35:12;;;;;;;2.03;1.17;;;;;;;7.86;94.78;95601.25;5058194;28;20594;-71
2023/04/25 01:37:39;;;;;;;0.37;0.37;;;;;;;7.80;95.44;95609.78;5057357;28;20239;-68
2023/04/25 01:40:09;;;;;;;0.87;0.57;;;;;;;7.81;95.58;95610.63;5057867;28;20215;-71
2023/04/25 01:42:36;;;;;;;0.63;0.63;;;;;;;7.90;94.06;95605.97;5057413;28;20220;-72
2023/04/25 01:45:03;;;;;;;1.13;0.77;;;;;;;7.89;93.83;95601.72;5057672;28;20243;-70
2023/04/25 01:47:30;;;;;;;0.83;0.83;;;;;;;8.02;94.00;95604.56;5056880;28;20204;-70
2023/04/25 01:49:57;;;;;;;2.30;0.73;;;;;;;8.09;94.50;95600.22;5057841;28;20943;-69
2023/04/25 01:52:23;;;;;;;0.90;0.90;;;;;;;8.16;94.34;95600.34;5057378;28;20208;-70
2023/04/25 01:54:52;;;;;;;0.43;0.43;;;;;;;8.23;94.44;95604.72;5057416;28;20227;-71
2023/04/25 01:57:19;;;;;;;0.50;0.50;;;;;;;8.25;92.76;95607.16;5056661;28;20506;-71
2023/04/25 01:59:47;;;;;;;1.07;0.50;;;;;;;8.32;90.12;95600.22;5057160;28;20204;-71
2023/04/25 02:02:13;;;;;;;0.83;0.83;;;;;;;8.42;89.62;95606.03;5056875;28;20216;-70
2023/04/25 02:04:40;;;;;;;1.10;0.83;;;;;;;8.43;88.98;95602.41;5056301;28;20658;-69
2023/04/25 02:07:06;;;;;;;0.43;0.43;;;;;;;8.45;90.15;95592.53;5057716;28;20212;-69
2023/04/25 02:09:33;;;;;;;0.60;0.60;;;;;;;8.55;87.94;95597.34;5056230;28;20570;-71
2023/04/25 02:12:00;;;;;;;1.17;1.03;;;;;;;8.46;88.96;95594.19;5056966;28;20204;-70
2023/04/25 02:14:28;;;;;;;0.63;0.63;;;;;;;8.62;87.92;95595.63;5056349;28;20236;-71
2023/04/25 02:16:55;;;;;;;0.57;0.57;;;;;;;8.54;89.48;95598.34;5057766;28;20216;-70
2023/04/25 02:19:21;;;;;;;0.30;0.30;;;;;;;8.55;89.69;95594.72;5055848;28;20486;-72
2023/04/25 02:21:47;;;;;;;1.83;0.90;;;;;;;8.48;89.66;95593.00;5057108;28;20200;-71
2023/04/25 02:24:14;;;;;;;1.87;1.17;;;;;;;8.65;88.75;95595.25;5056323;28;20723;-70
2023/04/25 02:26:41;;;;;;;3.23;2.50;;;;;;;8.57;89.74;95591.94;5056584;28;20234;-68
2023/04/25 02:29:07;;;;;;;1.40;1.20;;;;;;;8.56;89.13;95596.34;5055787;28;20215;-70
2023/04/25 02:31:35;;;;;;;0.50;0.50;;;;;;;8.56;89.85;95583.22;5056762;28;20236;-71
2023/04/25 02:34:02;;;;;;;0.67;0.67;;;;;;;8.63;90.83;95585.94;5056321;28;20224;-71
2023/04/25 02:36:32;;;;;;;0.97;0.80;;;;;;;8.59;90.84;95569.75;5056420;28;20215;-71
2023/04/25 02:38:58;;;;;;;0.30;0.30;;;;;;;8.68;93.22;95571.28;5056414;28;20661;-71
2023/04/25 02:41:24;;;;;;;4.17;0.60;;;;;;;8.63;95.20;95568.38;5055525;28;20208;-69
2023/04/25 02:43:51;;;;;;;0.50;0.50;;;;;;;8.54;96.90;95566.84;5056087;28;20712;-70
2023/04/25 02:46:17;;;;;;;0.40;0.40;;;;;;;8.58;97.78;95570.72;5056899;28;20232;-71
2023/04/25 02:48:45;;;;;;;1.20;1.10;;;;;;;8.73;94.05;95578.59;5055161;28;21050;-71
2023/04/25 02:51:12;;;;;;;0.60;0.60;;;;;;;8.68;93.57;95594.91;5053839;28;20208;-68
2023/04/25 02:53:38;;;;;;;1.13;1.07;;;;;;;8.71;93.20;95588.50;5054305;28;20220;-70
2023/04/25 02:56:05;;;;;;;0.83;0.67;;;;;;;8.67;91.41;95593.28;5056427;28;20204;-70
2023/04/25 02:58:32;;;;;;;0.73;0.53;;;;;;;8.56;92.21;95598.97;5055086;28;20236;-70
2023/04/25 03:00:58;;;;;;;0.90;0.90;;;;;;;8.57;92.69;95587.47;5056493;28;20213;-70
2023/04/25 03:03:25;;;;;;;1.50;1.10;;;;;;;8.68;93.35;95584.41;5055234;28;20632;-69
2023/04/25 03:05:53;;;;;;;0.93;0.70;;;;;;;8.68;95.11;95586.22;5055914;28;20228;-68
2023/04/25 03:08:19;;;;;;;0.30;0.30;;;;;;;8.61;93.25;95587.94;5054349;28;20205;-70
2023/04/25 03:10:46;;;;;;;5.37;0.73;;;;;;;8.61;92.63;95583.50;5055679;28;20594;-71
2023/04/25 03:13:13;;;;;;;0.77;0.70;;;;;;;8.57;94.44;95582.22;5055793;28;20201;-70
2023/04/25 03:15:39;;;;;;;0.50;0.50;;;;;;;8.69;94.56;95574.72;5055397;28;20208;-68
2023/04/25 03:18:06;;;;;;;0.63;0.63;;;;;;;8.77;95.31;95572.81;5055834;28;20469;-68
2023/04/25 03:20:32;;;;;;;0.50;0.50;;;;;;;8.83;96.77;95574.69;5055393;28;20208;-69
2023/04/25 03:23:00;;;;;;;0.50;0.50;;;;;;;8.85;96.71;95577.16;5055851;28;20212;-69
2023/04/25 03:25:27;;;;;;;0.70;0.70;;;;;;;8.74;95.66;95578.41;5055390;28;20275;-71
2023/04/25 03:27:53;;;;;;;1.47;1.03;;;;;;;8.80;96.31;95580.31;5055754;28;20220;-69
2023/04/25 03:30:19;;;;;;;0.50;0.50;;;;;;;8.64;95.86;95571.81;5054956;28;20208;-68
2023/04/25 03:32:46;;;;;;;0.53;0.53;;;;;;;8.76;93.96;95573.00;5055312;28;20204;-69
2023/04/25 03:35:12;;;;;;;0.20;0.20;;;;;;;8.84;95.76;95560.56;5055574;28;20220;-70
2023/04/25 03:37:40;;;;;;;0.80;0.40;;;;;;;8.75;94.90;95566.91;5054973;28;20901;-69
2023/04/25 03:40:09;;;;;;;0.30;0.30;;;;;;;8.80;94.61;95563.75;5055642;28;20208;-68
2023/04/25 03:42:35;;;;;;;0.57;0.50;;;;;;;8.65;94.43;95571.63;5055470;28;20237;-71
2023/04/25 03:45:02;;;;;;;0.67;0.67;;;;;;;8.62;93.55;95568.56;5055618;28;20235;-69
2023/04/25 03:47:29;;;;;;;2.90;1.03;;;;;;;8.57;94.29;95576.97;5054348;28;20204;-70
2023/04/25 03:49:55;;;;;;;0.43;0.43;;;;;;;8.55;94.33;95563.22;5056108;28;20292;-68
2023/04/25 03:52:22;;;;;;;1.40;0.57;;;;;;;8.53;94.59;95573.09;5053859;28;20208;-71
2023/04/25 03:54:48;;;;;;;0.80;0.80;;;;;;;8.59;94.44;95569.75;5055071;28;21173;-69
2023/04/25 03:57:16;;;;;;;0.40;0.40;;;;;;;8.55;94.96;95571.09;5055579;28;20690;-68
2023/04/25 03:59:42;;;;;;;1.97;1.50;;;;;;;8.56;95.56;95579.78;5055907;28;20207;-70
2023/04/25 04:02:09;;;;;;;1.03;0.93;;;;;;;8.59;94.92;95568.91;5054140;28;20207;-70
2023/04/25 04:04:36;;;;;;;0.50;0.50;;;;;;;8.48;94.68;95568.53;5056245;28;20254;-69
2023/04/25 04:07:02;;;;;;;1.00;0.90;;;;;;;8.61;94.82;95559.84;5059503;28;20224;-71
2023/04/25 04:09:29;;;;;;;0.60;0.60;;;;;;;8.47;94.58;95556.44;5058234;28;20200;-71
2023/04/25 04:11:55;;;;;;;0.83;0.63;;;;;;;8.60;95.38;95563.50;5059261;28;20573;-69
2023/04/25 04:14:23;;;;;;;1.40;0.97;;;;;;;8.66;95.77;95565.38;5059089;28;20228;-70
2023/04/25 04:16:51;;;;;;;2.43;0.70;;;;;;;8.62;93.92;95569.38;5059038;28;20200;-71
2023/04/25 04:19:18;;;;;;;0.93;0.70;;;;;;;8.35;96.70;95568.34;5058262;28;20207;-71
2023/04/25 04:21:44;;;;;;;1.67;0.70;;;;;;;8.54;93.25;95577.34;5059174;28;20200;-71
2023/04/25 04:24:11;;;;;;;0.87;0.80;;;;;;;8.60;93.39;95568.75;5058793;28;20231;-69
2023/04/25 04:26:38;;;;;;;1.53;0.80;;;;;;;8.59;95.79;95574.16;5058441;28;20697;-69
2023/04/25 04:29:05;;;;;;;1.10;1.00;;;;;;;8.57;95.50;95576.16;5058642;28;20210;-68
2023/04/25 04:31:32;;;;;;;0.43;0.43;;;;;;;8.63;96.24;95581.50;5059118;28;20720;-71
2023/04/25 04:33:59;;;;;;;0.50;0.50;;;;;;;8.44;95.74;95583.03;5058144;28;20896;-70
2023/04/25 04:36:26;;;;;;;0.70;0.70;;;;;;;8.54;95.27;95576.50;5059064;28;20196;-69
2023/04/25 04:38:53;;;;;;;0.60;0.60;;;;;;;8.68;95.84;95579.16;5058570;28;20214;-70
2023/04/25 04:41:20;;;;;;;1.23;1.13;;;;;;;8.58;96.84;95586.50;5058357;28;20200;-68
2023/04/25 04:43:46;;;;;;;4.70;0.93;;;;;;;8.57;95.18;95584.84;5058198;28;20638;-69
2023/04/25 04:46:13;;;;;;;0.37;0.37;;;;;;;8.59;95.29;95575.00;5058795;28;20223;-71
2023/04/25 04:48:42;;;;;;;0.40;0.40;;;;;;;8.67;95.22;95585.41;5057290;28;20211;-68
2023/04/25 04:51:08;;;;;;;0.47;0.47;;;;;;;8.43;94.79;95589.28;5058945;28;20200;-69
2023/04/25 04:53:35;;;;;;;0.80;0.80;;;;;;;8.43;94.86;95584.03;5058319;28;20227;-71
2023/04/25 04:56:01;;;;;;;0.37;0.37;;;;;;;8.46;95.60;95584.47;5058435;28;20528;-70
2023/04/25 04:58:29;;;;;;;2.20;1.23;;;;;;;8.49;95.88;95595.44;5057482;28;20198;-70
2023/04/25 05:00:56;;;;;;;0.83;0.70;;;;;;;8.52;94.73;95595.06;5059143;28;20254;-71
2023/04/25 05:03:22;;;;;;;0.57;0.57;;;;;;;8.61;94.99;95594.00;5057718;28;20544;-70
2023/04/25 05:05:50;;;;;;;0.83;0.80;;;;;;;8.62;94.72;95594.81;5058603;28;20800;-69
2023/04/25 05:08:16;;;;;;;0.53;0.53;;;;;;;8.56;94.79;95598.16;5058209;28;20211;-70
2023/04/25 05:10:43;;;;;;;0.57;0.57;;;;;;;8.59;93.79;95596.00;5058560;28;20200;-71
2023/04/25 05:13:09;;;;;;;0.80;0.80;;;;;;;8.59;93.62;95593.38;5058264;28;20211;-70
2023/04/25 05:15:36;;;;;;;0.40;0.40;;;;;;;8.62;93.47;95590.38;5057700;28;20208;-71
2023/04/25 05:18:02;;;;;;;1.20;0.87;;;;;;;8.71;92.89;95594.53;5057990;28;20207;-70
2023/04/25 05:20:29;;;;;;;0.40;0.40;;;;;;;8.72;93.13;95587.50;5058225;28;20200;-68
2023/04/25 05:22:57;;;;;;;0.90;0.50;;;;;;;8.72;92.80;95585.69;5057951;28;20205;-71
2023/04/25 05:25:23;;;;;;;0.40;0.40;;;;;;;8.68;94.16;95589.66;5058205;28;20561;-70
2023/04/25 05:27:50;;;;;;;0.20;0.20;;;;;;;8.66;92.89;95593.47;5058190;28;20220;-71
2023/04/25 05:30:17;;;;;;;0.53;0.53;;;;;;;8.57;93.33;95592.72;5057876;28;20296;-69
2023/04/25 05:32:43;;;;;;;0.50;0.50;;;;;;;8.66;93.40;95586.38;5058429;28;20200;-71
2023/04/25 05:35:10;;;;;;;0.87;0.83;;;;;;;8.54;95.06;95582.59;5058174;28;20227;-69
2023/04/25 05:37:36;;;;;;;1.30;0.73;;;;;;;8.47;97.50;95586.13;5057910;28;20203;-69
2023/04/25 05:40:06;;;;;;;0.53;0.53;;;;;;;8.53;98.05;95580.16;5057659;28;20200;-71
2023/04/25 05:42:33;;;;;;;1.70;0.63;;;;;;;8.58;98.63;95578.59;5058040;28;20200;-71
2023/04/25 05:44:59;;;;;;;0.30;0.30;;;;;;;8.55;98.74;95592.13;5057755;28;20755;-70
2023/04/25 05:47:25;;;;;;;0.43;0.43;;;;;;;8.44;98.74;95596.16;5057365;28;20225;-71
2023/04/25 05:49:52;;;;;;;1.30;1.20;;;;;;;8.57;99.96;95597.19;5057778;28;20576;-68
2023/04/25 05:52:19;;;;;;;5.20;0.70;;;;;;;8.45;99.62;95603.84;5057555;28;20405;-71
2023/04/25 05:54:46;;;;;;;0.30;0.30;;;;;;;8.56;98.88;95590.28;5058064;28;20224;-70
2023/04/25 05:57:21;;;;;;;0.63;0.63;;;;;;;8.73;99.80;95586.47;5057505;28;20200;-70
2023/04/25 05:59:47;;;;;;;0.30;0.30;;;;;;;8.78;100.00;95587.59;5057600;28;20777;-68
2023/04/25 06:02:14;;;;;;;0.30;0.30;;;;;;;8.88;100.00;95585.47;5056741;28;20205;-70
2023/04/25 06:04:40;;;;;;;0.30;0.30;;;;;;;8.94;100.00;95590.00;5057260;28;20216;-71
2023/04/25 06:07:07;;;;;;;1.50;1.00;;;;;;;8.94;97.82;95597.09;5057606;28;20228;-71
2023/04/25 06:09:35;;;;;;;0.40;0.40;;;;;;;9.05;98.16;95601.88;5057071;28;20208;-71
2023/04/25 06:12:01;;;;;;;0.47;0.47;;;;;;;9.10;98.60;95603.78;5057985;28;20595;-72
2023/04/25 06:14:30;;;;;;;1.70;0.83;;;;;;;9.05;97.51;95607.13;5056986;28;20255;-72
2023/04/25 06:16:56;;;;;;;1.13;0.30;;;;;;;9.11;97.41;95605.41;5057689;28;20279;-70
2023/04/25 06:19:23;;;;;;;0.30;0.30;;;;;;;8.86;99.09;95600.63;5056622;28;20201;-69
2023/04/25 06:21:49;;;;;;;0.30;0.30;;;;;;;8.82;98.42;95595.91;5057572;28;20208;-69
2023/04/25 06:24:16;;;;;;;0.60;0.60;;;;;;;8.76;98.13;95602.69;5057028;28;20223;-69
2023/04/25 06:26:42;;;;;;;0.30;0.30;;;;;;;8.90;97.25;95594.00;5057233;28;20277;-69
2023/04/25 06:29:09;;;;;;;0.63;0.63;;;;;;;8.79;95.97;95586.56;5055575;28;20197;-69
2023/04/25 06:31:36;;;;;;;1.07;0.57;;;;;;;9.02;94.86;95589.09;5056952;28;20208;-69
2023/04/25 06:34:03;;;;;;;0.40;0.40;;;;;;;8.89;95.05;95589.75;5056634;28;20220;-69
2023/04/25 06:36:30;;;;;;;0.27;0.27;;;;;;;9.02;95.49;95582.03;5056763;28;20197;-69
2023/04/25 06:38:56;;;;;;;0.83;0.70;;;;;;;9.16;94.23;95574.13;5056497;28;20196;-68
2023/04/25 06:41:23;;;;;;;0.60;0.60;;;;;;;9.37;92.86;95576.00;5056738;28;20204;-69
2023/04/25 06:43:49;;;;;;;0.57;0.57;;;;;;;9.55;91.05;95573.75;5056534;28;20228;-68
2023/04/25 06:46:16;;;;;;;1.40;0.50;;;;;;;9.42;91.39;95576.22;5056853;28;20231;-69
2023/04/25 06:48:44;;;;;;;1.30;1.13;;;;;;;9.39;91.58;95580.03;5055842;28;20201;-74
2023/04/25 06:51:10;;;;;;;1.10;1.00;;;;;;;9.42;92.80;95578.84;5056629;28;20261;-75
2023/04/25 06:53:37;;;;;;;0.30;0.30;;;;;;;9.46;92.77;95574.88;5055563;28;20228;-69
2023/04/25 06:56:04;;;;;;;0.43;0.43;;;;;;;9.69;90.69;95563.19;5056876;28;20204;-73
2023/04/25 06:58:30;;;;;;;1.03;0.90;;;;;;;9.61;90.20;95573.81;5054169;28;20196;-71
2023/04/25 07:00:57;;;;;;;0.60;0.60;;;;;;;9.97;89.96;95578.03;5056415;28;20212;-69
2023/04/25 07:03:23;;;;;;;0.70;0.50;;;;;;;10.15;87.22;95578.41;5055699;28;20227;-72
2023/04/25 07:05:51;;;;;;;0.47;0.47;;;;;;;10.37;85.93;95572.91;5057035;28;20201;-72
2023/04/25 07:08:18;;;;;;;0.50;0.50;;;;;;;10.43;85.21;95571.34;5055691;28;20224;-75
2023/04/25 07:10:45;;;;;;;0.30;0.30;;;;;;;10.39;84.50;95575.34;5055650;28;20217;-70
2023/04/25 07:13:12;;;;;;;0.53;0.53;;;;;;;10.57;82.74;95570.41;5056352;28;20196;-72
2023/04/25 07:15:38;;;;;;;0.50;0.50;;;;;;;10.46;82.18;95570.94;5056315;28;20200;-72
2023/04/25 07:18:05;;;;;;;0.63;0.63;;;;;;;10.38;80.89;95579.00;5055513;28;20200;-69
2023/04/25 07:20:32;;;;;;;1.70;0.87;;;;;;;10.34;80.03;95570.66;5057268;28;20201;-70
2023/04/25 07:23:00;;;;;;;0.60;0.60;;;;;;;10.53;81.55;95572.63;5056523;28;20611;-73
2023/04/25 07:25:26;;;;;;;0.73;0.73;;;;;;;10.72;81.63;95568.50;5055903;28;20213;-69
2023/04/25 07:27:53;;;;;;;0.53;0.53;;;;;;;10.70;79.17;95576.56;5055489;28;20239;-71
2023/04/25 07:30:20;;;;;;;0.50;0.50;;;;;;;10.63;80.45;95569.66;5056214;28;20230;-71
2023/04/25 07:32:46;;;;;;;1.70;0.60;;;;;;;10.63;79.99;95573.09;5055717;28;20196;-73
2023/04/25 07:35:12;;;;;;;0.80;0.80;;;;;;;11.03;80.41;95569.66;5055731;28;20233;-71
2023/04/25 07:37:39;;;;;;;0.50;0.50;;;;;;;11.06;77.84;95559.53;5054959;28;20212;-70
2023/04/25 07:40:09;;;;;;;0.27;0.27;;;;;;;11.52;75.41;95576.41;5054436;28;20598;-73
2023/04/25 07:42:35;;;;;;;8.43;1.90;;;;;;;11.28;73.45;95574.25;5055679;28;20209;-74
2023/04/25 07:45:02;;;;;;;0.43;0.40;;;;;;;11.30;74.21;95569.59;5055431;28;20231;-71
2023/04/25 07:47:29;;;;;;;0.80;0.57;;;;;;;10.95;74.83;95573.28;5055941;28;20228;-70
2023/04/25 07:49:56;;;;;;;0.67;0.63;;;;;;;11.09;75.76;95574.97;5055973;28;20232;-69
2023/04/25 07:52:22;;;;;;;0.60;0.60;;;;;;;11.00;74.47;95585.88;5056121;28;20200;-71
2023/04/25 07:54:49;;;;;;;0.43;0.43;;;;;;;10.66;76.78;95582.44;5056213;28;20254;-72
2023/04/25 07:57:17;;;;;;;0.70;0.70;;;;;;;10.74;77.44;95577.81;5055340;28;20229;-72
2023/04/25 07:59:43;;;;;;;0.97;0.90;;;;;;;10.90;77.95;95580.13;5055172;28;20200;-75
2023/04/25 08:02:09;;;;;;;0.87;0.60;;;;;;;11.13;76.59;95578.03;5055904;28;20223;-70
2023/04/25 08:04:36;;;;;;;0.90;0.70;;;;;;;11.30;76.22;95577.50;5056288;28;20282;-69
2023/04/25 08:07:03;;;;;;;0.50;0.50;;;;;;;11.22;77.63;95575.00;5055862;28;20224;-72
2023/04/25 08:09:34;;;;;;;0.40;0.40;;;;;;;11.19;76.17;95582.53;5054324;28;20204;-70
2023/04/25 08:12:01;;;;;;;0.77;0.53;;;;;;;11.34;76.84;95588.44;5055703;28;20200;-69
2023/04/25 08:14:35;;;;;;;1.00;0.90;;;;;;;11.45;77.12;95580.78;5055142;28;20307;-74
2023/04/25 08:17:01;;;;;;;0.67;0.67;;;;;;;11.53;75.39;95582.47;5055983;28;20726;-71
2023/04/25 08:19:28;;;;;;;0.77;0.60;;;;;;;11.38;75.10;95584.41;5055236;28;20579;-72
2023/04/25 08:21:55;;;;;;;0.57;0.43;;;;;;;11.25;75.51;95584.34;5055751;28;20907;-72
2023/04/25 08:24:21;;;;;;;1.70;1.60;;;;;;;11.39;77.56;95580.75;5055533;28;20864;-71
2023/04/25 08:26:48;;;;;;;0.60;0.53;;;;;;;11.13;75.89;95592.00;5055766;28;20224;-71
2023/04/25 08:29:14;;;;;;;1.20;1.10;;;;;;;10.96;75.86;95582.81;5055221;28;20201;-71
2023/04/25 08:31:42;;;;;;;1.70;0.80;;;;;;;11.10;77.13;95592.41;5055540;28;20205;-68
2023/04/25 08:34:09;;;;;;;0.43;0.43;;;;;;;10.62;78.10;95597.81;5055897;28;20223;-70
2023/04/25 08:36:35;;;;;;;0.70;0.70;;;;;;;10.66;79.43;95598.25;5056089;28;21714;-74
2023/04/25 08:39:02;;;;;;;0.60;0.60;;;;;;;10.26;84.90;95609.50;5055117;28;20230;-70
2023/04/25 08:41:29;;;;;;;0.47;0.47;;;;;;;10.00;86.79;95611.88;5054601;28;20201;-72
2023/04/25 08:43:57;;;;;;;1.20;0.47;;;;;;;9.88;83.72;95608.09;5055300;28;20608;-73
2023/04/25 08:46:24;;;;;;;0.70;0.70;;;;;;;9.71;94.70;95621.66;5055106;28;20243;-74
2023/04/25 08:48:57;;;;;;;0.77;0.63;;;;;;;9.22;99.17;95630.41;5055311;28;20320;-70
2023/04/25 08:51:25;;;;;;;0.60;0.60;;;;;;;9.41;100.00;95635.91;5057224;28;20216;-70
2023/04/25 08:53:53;;;;;;;0.60;0.60;;;;;;;9.43;99.00;95648.84;5059161;28;20343;-69
2023/04/25 08:56:22;;;;;;;0.40;0.40;;;;;;;9.52;100.00;95658.28;5058737;28;20201;-69
2023/04/25 08:58:50;;;;;;;1.23;0.90;;;;;;;9.61;100.00;95650.09;5054990;28;20290;-69
2023/04/25 09:01:16;;;;;;;0.77;0.77;;;;;;;9.47;100.00;95652.75;5058457;28;21123;-70
2023/04/25 09:03:43;;;;;;;0.60;0.60;;;;;;;9.39;100.00;95631.81;5059135;28;20251;-71
2023/04/25 09:06:12;;;;;;;0.33;0.33;;;;;;;9.26;96.51;95621.94;5058606;28;20568;-70
2023/04/25 09:08:39;;;;;;;0.47;0.47;;;;;;;9.67;97.77;95630.13;5057861;28;20274;-70
2023/04/25 09:11:07;;;;;;;0.40;0.40;;;;;;;9.77;93.47;95637.50;5058403;28;20662;-71
2023/04/25 09:13:33;;;;;;;0.43;0.43;;;;;;;10.15;90.05;95644.22;5058197;28;20220;-70
2023/04/25 09:16:00;;;;;;;1.53;0.80;;;;;;;10.38;87.10;95644.81;5058768;28;20201;-72
2023/04/25 09:18:28;;;;;;;0.50;0.50;;;;;;;10.70;91.58;95642.44;5057574;28;20674;-69
2023/04/25 09:20:55;;;;;;;0.70;0.70;;;;;;;10.76;89.95;95644.31;5058421;28;20211;-69
2023/04/25 09:23:23;;;;;;;0.57;0.57;;;;;;;11.26;91.62;95642.19;5058030;28;20221;-69
2023/04/25 09:25:51;;;;;;;0.80;0.80;;;;;;;11.06;97.15;95649.19;5058410;28;20208;-69
2023/04/25 09:28:24;;;;;;;0.50;0.50;;;;;;;11.14;93.53;95649.03;5056872;28;20220;-69
2023/04/25 09:30:50;;;;;;;0.40;0.40;;;;;;;10.99;98.95;95650.94;5058191;28;20571;-69
2023/04/25 09:33:17;;;;;;;1.30;0.90;;;;;;;11.10;90.12;95641.72;5057323;28;20756;-69
2023/04/25 09:35:44;;;;;;;2.13;0.57;;;;;;;11.22;90.55;95645.41;5058285;28;20205;-69
2023/04/25 09:38:13;;;;;;;0.40;0.40;;;;;;;11.40;89.88;95649.16;5056941;28;20196;-71
2023/04/25 09:40:42;;;;;;;1.40;1.00;;;;;;;11.46;88.25;95651.00;5057329;28;20208;-71
2023/04/25 09:43:19;;;;;;;0.40;0.40;;;;;;;11.39;91.29;95662.53;5057628;28;20219;-71
2023/04/25 09:45:47;;;;;;;0.53;0.53;;;;;;;11.25;89.39;95669.59;5057965;28;20212;-71
2023/04/25 09:48:18;;;;;;;0.70;0.60;;;;;;;11.24;86.23;95672.41;5057006;28;20611;-69
2023/04/25 09:50:45;;;;;;;0.70;0.70;;;;;;;11.43;89.78;95672.53;5057964;28;20212;-69
2023/04/25 09:53:11;;;;;;;0.57;0.57;;;;;;;11.21;86.78;95673.59;5057853;28;20215;-69
2023/04/25 09:55:39;;;;;;;1.37;0.50;;;;;;;11.23;86.36;95668.94;5057120;28;20219;-70
2023/04/25 09:58:08;;;;;;;0.63;0.60;;;;;;;11.23;89.77;95673.44;5056413;28;20246;-71
2023/04/25 10:00:35;;;;;;;0.60;0.60;;;;;;;10.97;91.01;95666.16;5058058;28;20204;-71
2023/04/25 10:03:05;;;;;;;0.60;0.60;;;;;;;10.86;92.00;95672.97;5056813;28;20224;-69
2023/04/25 10:05:35;;;;;;;0.50;0.50;;;;;;;10.65;96.73;95683.53;5056923;28;20212;-69
2023/04/25 10:08:03;;;;;;;1.37;0.73;;;;;;;10.42;100.00;95675.88;5056951;28;20216;-69
2023/04/25 10:10:35;;;;;;;1.10;1.00;;;;;;;10.43;100.00;95682.75;5056855;28;20200;-69
2023/04/25 10:13:04;;;;;;;1.50;0.97;;;;;;;10.13;100.00;95682.25;5057368;28;20200;-69
2023/04/25 10:15:35;;;;;;;1.33;0.90;;;;;;;10.26;100.00;95675.31;5056503;28;20287;-71
2023/04/25 10:18:02;;;;;;;0.60;0.60;;;;;;;9.68;100.00;95680.72;5056493;28;20315;-69
2023/04/25 10:20:29;;;;;;;0.70;0.70;;;;;;;9.92;100.00;95680.38;5056290;28;20211;-69
2023/04/25 10:22:58;;;;;;;0.70;0.70;;;;;;;9.75;98.77;95686.88;5057653;28;20201;-73
2023/04/25 10:25:25;;;;;;;1.27;0.83;;;;;;;9.54;98.05;95685.22;5056183;28;20333;-73
2023/04/25 10:27:52;;;;;;;0.80;0.80;;;;;;;9.63;95.47;95692.81;5055523;28;20232;-69
2023/04/25 10:30:19;;;;;;;1.03;0.70;;;;;;;9.56;100.00;95701.59;5055825;28;21070;-68
2023/04/25 10:32:49;;;;;;;0.60;0.60;;;;;;;9.32;100.00;95709.81;5056497;28;20232;-71
2023/04/25 10:35:18;;;;;;;0.80;0.63;;;;;;;9.33;100.00;95725.41;5056120;28;20216;-68
2023/04/25 10:38:15;;;;;;;0.73;0.73;;;;;;;9.19;100.00;95735.91;5055439;28;20201;-71
2023/04/25 10:40:41;;;;;;;0.70;0.70;;;;;;;8.80;100.00;95730.06;4994781;28;20211;-71
2023/04/25 10:43:37;;;;;;;0.40;0.40;;;;;;;8.88;100.00;95742.31;5042122;28;20212;-68
2023/04/25 10:46:05;;;;;;;3.17;0.60;;;;;;;8.44;100.00;95745.78;5057138;28;20228;-71
2023/04/25 10:48:33;;;;;;;0.40;0.40;;;;;;;7.92;100.00;95756.13;5056095;28;20224;-68
2023/04/25 10:51:09;;;;;;;0.30;0.30;;;;;;;7.84;100.00;95757.97;5056978;28;20211;-68
2023/04/25 10:53:36;;;;;;;0.53;0.50;;;;;;;7.86;100.00;95755.19;5056099;28;21566;-70
2023/04/25 10:56:10;;;;;;;0.40;0.40;;;;;;;7.96;100.00;95759.22;5056382;28;21091;-70
2023/04/25 10:58:37;;;;;;;0.50;0.50;;;;;;;7.81;100.00;95760.94;5055543;28;20654;-71
2023/04/25 11:01:03;;;;;;;0.40;0.40;;;;;;;7.88;100.00;95764.50;5056968;28;20205;-69
2023/04/25 11:03:30;;;;;;;0.30;0.30;;;;;;;7.86;100.00;95758.63;5055805;28;20235;-70
2023/04/25 11:05:59;;;;;;;0.30;0.30;;;;;;;8.01;100.00;95756.91;5056689;28;20228;-70
2023/04/25 11:08:38;;;;;;;0.50;0.50;;;;;;;8.02;100.00;95742.78;5055676;28;20247;-71
2023/04/25 11:11:05;;;;;;;0.40;0.40;;;;;;;8.21;100.00;95747.59;5056030;28;21148;-67
2023/04/25 11:13:31;;;;;;;0.40;0.40;;;;;;;8.44;100.00;95748.41;5056397;28;20220;-71
2023/04/25 11:15:58;;;;;;;0.30;0.30;;;;;;;8.69;100.00;95748.06;5057332;28;20200;-70
2023/04/25 11:18:27;;;;;;;0.30;0.30;;;;;;;9.02;100.00;95749.41;5055427;28;20192;-68
2023/04/25 11:20:53;;;;;;;0.30;0.30;;;;;;;9.29;100.00;95749.59;5056582;28;20201;-68
2023/04/25 11:23:21;;;;;;;0.30;0.30;;;;;;;9.48;100.00;95756.94;5056038;28;20232;-71
2023/04/25 11:25:48;;;;;;;1.00;0.60;;;;;;;9.55;100.00;95753.41;5056114;28;20212;-71
2023/04/25 11:28:22;;;;;;;0.70;0.70;;;;;;;9.66;100.00;95760.84;5055851;28;20220;-71
2023/04/25 11:30:49;;;;;;;0.50;0.50;;;;;;;9.37;100.00;95762.66;5056317;28;20277;-70
2023/04/25 11:33:16;;;;;;;0.70;0.70;;;;;;;9.25;100.00;95758.84;5055897;28;20244;-68
2023/04/25 11:35:42;;;;;;;0.67;0.67;;;;;;;9.46;100.00;95764.22;5056764;28;20196;-68
2023/04/25 11:38:09;;;;;;;2.43;1.00;;;;;;;9.49;100.00;95758.59;5056080;28;20567;-71
2023/04/25 11:40:37;;;;;;;0.50;0.50;;;;;;;9.21;100.00;95761.00;5055993;28;20204;-71